createdAt,value
2022-10-09T00:00:02.669Z,70.7
2022-10-09T00:05:01.617Z,70.4
2022-10-09T00:10:06.384Z,70.6
2022-10-09T00:15:01.380Z,70.6
2022-10-09T00:25:01.380Z,69.9
2022-10-09T00:30:01.277Z,68.8
2022-10-09T00:35:01.563Z,70.5
2022-10-09T00:40:01.493Z,72.0
2022-10-09T00:45:06.541Z,74.4
2022-10-09T00:50:06.261Z,74.0
2022-10-09T01:10:01.825Z,73.0
2022-10-09T01:15:01.848Z,72.7
2022-10-09T01:20:01.488Z,73.0
2022-10-09T01:40:01.036Z,71.4
2022-10-09T01:45:01.061Z,69.7
2022-10-09T01:50:05.967Z,70.3
2022-10-09T01:55:00.939Z,71.1
2022-10-09T02:20:01.543Z,82.6
2022-10-09T02:25:01.490Z,81.6
2022-10-09T02:30:01.554Z,81.4
2022-10-09T02:35:01.498Z,80.7
2022-10-09T02:40:01.437Z,81.3
2022-10-09T02:45:01.882Z,80.6
2022-10-09T02:50:01.382Z,80.0
2022-10-09T02:55:01.403Z,79.0
2022-10-09T03:00:01.470Z,77.1
2022-10-09T03:05:01.576Z,75.3
2022-10-09T03:10:01.439Z,74.1
2022-10-09T03:15:02.130Z,73.6
2022-10-09T03:20:01.419Z,73.5
2022-10-09T03:25:06.484Z,74.2
2022-10-09T03:30:01.618Z,74.0
2022-10-09T03:35:01.550Z,74.0
2022-10-09T03:40:01.557Z,75.4
2022-10-09T03:45:01.466Z,76.1
2022-10-09T03:50:01.693Z,77.4
2022-10-09T03:55:01.437Z,78.2
2022-10-09T04:00:01.429Z,79.0
2022-10-09T04:05:01.407Z,79.1
2022-10-09T04:10:06.782Z,78.0
2022-10-09T04:15:06.494Z,76.6
2022-10-09T04:20:01.305Z,75.2
2022-10-09T04:25:01.420Z,74.3
2022-10-09T04:30:01.388Z,72.3
2022-10-09T04:35:01.552Z,73.2
2022-10-09T04:40:01.392Z,73.7
2022-10-09T04:45:01.467Z,75.3
2022-10-09T04:50:01.338Z,75.9
2022-10-09T04:55:01.480Z,78.1
2022-10-09T05:00:01.293Z,78.7
2022-10-09T05:05:01.394Z,79.8
2022-10-09T05:10:01.254Z,80.1
2022-10-09T05:20:01.834Z,80.7
2022-10-09T05:25:01.383Z,80.1
2022-10-09T05:35:01.326Z,80.1
2022-10-09T05:50:01.274Z,78.4
2022-10-09T05:55:01.455Z,79.0
2022-10-09T06:05:01.543Z,78.1
2022-10-09T06:10:01.258Z,77.9
2022-10-09T06:15:01.322Z,78.2
2022-10-09T06:20:01.271Z,76.1
2022-10-09T06:30:01.638Z,73.6
2022-10-09T06:35:01.390Z,72.1
2022-10-09T06:45:01.325Z,71.0
2022-10-09T06:50:01.356Z,79.0
2022-10-09T06:55:01.266Z,80.2
2022-10-09T07:00:01.265Z,80.4
2022-10-09T07:05:02.214Z,79.2
2022-10-09T07:10:01.357Z,77.8
2022-10-09T07:15:01.405Z,68.6
2022-10-09T07:20:01.259Z,66.6
2022-10-09T07:25:01.662Z,67.0
2022-10-09T07:30:01.415Z,66.9
2022-10-09T07:35:02.251Z,72.4
2022-10-09T07:40:01.313Z,71.6
2022-10-09T07:45:01.406Z,71.9
2022-10-09T07:50:01.654Z,71.3
2022-10-09T07:55:01.476Z,71.6
2022-10-09T08:00:01.607Z,66.8
2022-10-09T08:10:02.593Z,68.4
2022-10-09T08:15:01.486Z,70.6
2022-10-09T08:20:01.289Z,72.8
2022-10-09T08:25:06.548Z,70.4
2022-10-09T08:30:01.613Z,66.7
2022-10-09T08:35:06.354Z,63.5
2022-10-09T08:40:02.304Z,59.4
2022-10-09T08:45:01.501Z,60.2
2022-10-09T08:50:01.303Z,60.3
2022-10-09T09:00:02.376Z,60.6
2022-10-09T09:05:01.445Z,61.4
2022-10-09T09:15:01.435Z,56.9
2022-10-09T09:30:00.981Z,89.8
2022-10-09T09:35:01.978Z,72.5
2022-10-09T10:10:01.480Z,56.2
2022-10-09T10:15:01.434Z,61.0
2022-10-09T10:20:02.323Z,59.0
2022-10-09T10:25:01.486Z,57.8
2022-10-09T10:30:01.582Z,57.6
2022-10-09T10:35:06.467Z,58.2
2022-10-09T10:40:02.605Z,57.6
2022-10-09T11:00:01.495Z,41.2
2022-10-09T11:05:01.047Z,42.5
2022-10-09T11:20:01.486Z,46.6
2022-10-09T11:25:01.319Z,50.4
2022-10-09T11:30:01.332Z,51.6
2022-10-09T11:35:01.447Z,54.3
2022-10-09T11:40:01.359Z,55.2
2022-10-09T11:45:01.409Z,58.7
2022-10-09T11:50:01.254Z,60.4
2022-10-09T12:10:01.971Z,58.2
2022-10-09T12:15:01.917Z,50.4
2022-10-09T12:30:01.358Z,57.4
2022-10-09T12:35:01.316Z,67.6
2022-10-09T12:40:01.419Z,68.9
2022-10-09T12:45:01.255Z,68.1
2022-10-09T12:50:01.360Z,68.0
2022-10-09T12:55:01.286Z,70.7
2022-10-09T13:00:01.186Z,71.0
2022-10-09T13:05:01.292Z,71.2
2022-10-09T13:10:01.216Z,72.3
2022-10-09T13:15:01.312Z,73.2
2022-10-09T13:20:01.124Z,74.3
2022-10-09T13:40:01.112Z,61.8
2022-10-09T13:50:06.989Z,71.0
2022-10-09T13:55:01.018Z,70.4
2022-10-09T14:00:01.097Z,71.9
2022-10-09T14:05:01.309Z,74.0
2022-10-09T14:10:01.599Z,72.0
2022-10-09T14:15:01.343Z,70.8
2022-10-09T14:20:00.988Z,71.8
2022-10-09T14:25:01.124Z,69.7
2022-10-09T14:35:01.074Z,66.3
2022-10-09T14:40:01.332Z,63.8
2022-10-09T14:45:01.012Z,61.0
2022-10-09T14:50:00.895Z,63.6
2022-10-09T14:55:01.052Z,63.8
2022-10-09T15:05:01.198Z,66.8
2022-10-09T15:10:01.001Z,67.1
2022-10-09T15:15:01.016Z,63.4
2022-10-09T15:20:01.037Z,63.5
2022-10-09T15:25:01.116Z,63.8
2022-10-09T15:30:00.913Z,62.4
2022-10-09T15:35:01.025Z,76.8
2022-10-09T15:40:01.315Z,77.4
2022-10-09T15:45:01.073Z,78.5
2022-10-09T15:50:01.228Z,78.5
2022-10-09T15:55:01.847Z,79.1
2022-10-09T16:00:01.232Z,65.9
2022-10-09T16:05:01.012Z,66.3
2022-10-09T16:10:00.901Z,65.4
2022-10-09T16:15:01.137Z,63.5
2022-10-09T16:20:01.516Z,63.0
2022-10-09T16:25:01.308Z,62.0
2022-10-09T16:30:01.150Z,61.3
2022-10-09T16:40:01.121Z,63.4
2022-10-09T16:50:00.927Z,67.1
2022-10-09T16:55:01.462Z,68.0
2022-10-09T17:00:01.123Z,68.2
2022-10-09T17:10:00.937Z,66.7
2022-10-09T17:15:01.023Z,65.6
2022-10-09T17:20:00.977Z,64.4
2022-10-09T17:25:01.021Z,63.2
2022-10-09T17:30:01.468Z,62.4
2022-10-09T17:35:01.171Z,61.2
2022-10-09T17:40:01.022Z,60.0
2022-10-09T17:45:00.953Z,58.5
2022-10-09T17:50:01.000Z,57.8
2022-10-09T17:55:00.959Z,56.0
2022-10-09T18:00:00.986Z,55.4
2022-10-09T18:05:01.154Z,55.2
2022-10-09T18:10:01.482Z,55.0
2022-10-09T18:15:01.081Z,58.6
2022-10-09T18:20:01.011Z,58.9
2022-10-09T18:25:01.177Z,59.1
2022-10-09T18:30:00.975Z,59.4
2022-10-09T18:35:01.121Z,61.4
2022-10-09T18:40:00.992Z,57.4
2022-10-09T18:45:01.097Z,57.6
2022-10-09T18:55:01.218Z,57.5
2022-10-09T19:00:01.081Z,56.0
2022-10-09T19:05:01.203Z,56.2
2022-10-09T19:10:01.965Z,57.4
2022-10-09T19:15:01.164Z,58.6
2022-10-09T19:20:01.008Z,59.4
2022-10-09T19:25:01.203Z,59.7
2022-10-09T19:30:02.065Z,59.2
2022-10-09T19:35:01.638Z,58.2
2022-10-09T19:40:00.984Z,57.0
2022-10-09T19:45:01.090Z,55.6
2022-10-09T19:55:01.092Z,56.3
2022-10-09T20:05:00.965Z,57.0
2022-10-09T20:10:01.029Z,58.8
2022-10-09T20:15:01.023Z,58.4
2022-10-09T20:20:01.026Z,58.0
2022-10-09T20:25:11.145Z,58.0
2022-10-09T20:30:00.971Z,56.9
2022-10-09T20:35:02.020Z,56.0
2022-10-09T20:40:01.206Z,55.3
2022-10-09T20:45:00.963Z,55.3
2022-10-09T20:50:00.911Z,55.1
2022-10-09T20:55:01.098Z,62.9
2022-10-09T21:00:01.015Z,62.5
2022-10-09T21:05:06.053Z,63.9
2022-10-09T21:10:00.959Z,65.3
2022-10-09T21:15:01.046Z,66.5
2022-10-09T21:20:00.996Z,58.9
2022-10-09T21:25:01.124Z,58.1
2022-10-09T21:30:00.905Z,57.2
2022-10-09T21:35:01.091Z,55.8
2022-10-09T21:40:01.025Z,54.4
2022-10-09T21:45:01.153Z,54.8
2022-10-09T21:50:01.016Z,55.6
2022-10-09T21:55:01.159Z,56.2
2022-10-09T22:00:01.075Z,57.6
2022-10-09T22:05:06.620Z,58.2
2022-10-09T22:10:00.993Z,59.2
2022-10-09T22:15:02.940Z,59.8
2022-10-09T22:20:01.039Z,60.4
2022-10-09T22:25:01.020Z,59.3
2022-10-09T22:30:01.350Z,58.6
2022-10-09T22:40:01.085Z,57.4
2022-10-09T22:45:01.035Z,56.3
2022-10-09T22:50:00.963Z,61.4
2022-10-09T22:55:02.184Z,62.2
2022-10-09T23:00:02.016Z,62.6
2022-10-09T23:05:01.184Z,63.8
2022-10-09T23:10:01.242Z,64.5
2022-10-09T23:15:01.123Z,59.6
2022-10-09T23:20:01.081Z,59.2
2022-10-09T23:25:01.107Z,59.5
2022-10-09T23:30:00.911Z,58.4
2022-10-09T23:35:01.049Z,71.9
2022-10-09T23:40:01.175Z,73.2
2022-10-09T23:45:01.128Z,74.3
2022-10-09T23:50:00.927Z,74.6
2022-10-09T23:55:01.049Z,76.2
